Plaquemine, Louisiana
Current Conditions -  °F | °C
As of 11:53 AM on Friday 19 Dec 2014 (Local Time) from KBTR Reporting Station
Light Rain Light Rain  
Wind Chill: 55°   Ceiling: 300
Heat Index: 55°   Visibility: 7mi
Dew Point: 53°   Wind: 9mph
Humidity: 93%   Direction: 70°ENE
Pressure: 30.08"   Gusts: NA
Location:  30.29°N, 91.23°W
Report Text: KBTR 191753Z 07008KT 7SM -RA OVC003 13/12 A3008 RMK AO2 RAE1657B04E16B34 SLP186 P0001 60052 T01280117 10133 20117 58011
Loading
Personal Weather Stations






























Interactive Weather Map New forecast layout! Learn more

10-Day Weather Forecast

Advertisements
Track Severe Weather on mobile